Fairfield, IL

9:10 AM CDT on March 24, 2017 (GMT -0500)
Fairfield Municipal

Weather History for KFWC - March, 2013

Change the Weather History Date:

Monday, March 25, 2013

  Actual Average (KMVN) Record (KMVN)
Temperature  
Mean Temperature 32 °F -  
Max Temperature 35 °F 56 °F 82 °F (2007)
Min Temperature 30 °F 36 °F 19 °F (2014)
Degree Days  
Heating Degree Days 32    
Moisture  
Dew Point 29 °F    
Average Humidity 88    
Maximum Humidity 93    
Minimum Humidity 75    
Precipitation  
Precipitation 0.00 in - - ()
Sea Level Pressure  
Sea Level Pressure 29.91 in    
Wind  
Wind Speed 10 mph (WNW)    
Max Wind Speed 15 mph    
Max Gust Speed 25 mph    
Visibility 5 miles    
Events Snow    
Averages and records for this station are not official NWS values.
T = Trace of Precipitation, MM = Missing Value Source: NWS Daily Summary

Daily Weather History Graph

Daily Weather History Graph

Search for Another Location

Airport or City:

Trip Planner

Search our weather history database for the weather conditions in past years. The results will help you decide how hot, cold, wet, or windy it might be!

Date:

Astronomy

Mar. 25, 2013 Rise Set
Actual Time 6:48 AM CDT 7:10 PM CDT
Civil Twilight 6:22 AM CDT 7:37 PM CDT
Nautical Twilight 5:51 AM CDT 8:08 PM CDT
Astronomical Twilight 5:19 AM CDT 8:39 PM CDT
Moon 5:42 PM CDT (3/25) 5:31 AM CDT (3/25)
Length of Visible Light 13h 14m
Length of Day
12h 21m
Waxing Gibbous, 96% of the Moon is Illuminated
Mar 25
Waxing Gibbous
Mar 27
Full
Apr 2
Last Quarter
Apr 10
New
Apr 18
First Quarter

Hourly Weather History & Observations

Time (CDT) Temp. Windchill Dew Point Humidity Pressure Visibility Wind Dir Wind Speed Gust Speed Precip Events Conditions
12:15 AM 32.0 °F 24.2 °F 30.2 °F 93% 29.68 in 1.0 mi WNW 9.2 mph 16.1 mph N/A Snow Snow
12:35 AM 32.0 °F 22.5 °F 30.2 °F 93% 29.68 in 1.5 mi WNW 12.7 mph 23.0 mph N/A Snow Light Snow
12:55 AM 32.0 °F 22.1 °F 30.2 °F 93% 29.69 in 1.8 mi NW 13.8 mph 23.0 mph N/A Snow Light Snow
1:15 AM 32.0 °F 23.6 °F 30.2 °F 93% 29.70 in 2.0 mi WNW 10.4 mph 17.3 mph N/A Snow Light Snow
1:35 AM 32.0 °F 24.2 °F 30.2 °F 93% 29.71 in 2.5 mi WNW 9.2 mph 23.0 mph N/A Snow Light Snow
1:55 AM 32.0 °F 23.6 °F 30.2 °F 93% 29.71 in 0.8 mi WNW 10.4 mph 17.3 mph N/A Snow Light Snow
2:15 AM 32.0 °F 24.2 °F 30.2 °F 93% 29.71 in 1.0 mi WNW 9.2 mph 18.4 mph N/A Snow Snow
2:35 AM 32.0 °F 24.2 °F 28.4 °F 87% 29.72 in 1.2 mi WNW 9.2 mph - N/A   Overcast
2:55 AM 32.0 °F 23.6 °F 28.4 °F 87% 29.72 in 1.8 mi NW 10.4 mph 17.3 mph N/A Snow Light Snow
3:15 AM 32.0 °F 24.2 °F 28.4 °F 87% 29.72 in 3.0 mi WNW 9.2 mph 18.4 mph N/A   Overcast
3:35 AM 32.0 °F 23.6 °F 28.4 °F 87% 29.72 in 4.0 mi WNW 10.4 mph 19.6 mph N/A   Overcast
3:55 AM 32.0 °F 23.6 °F 28.4 °F 87% 29.73 in 7.0 mi WNW 10.4 mph 19.6 mph N/A   Overcast
4:15 AM 32.0 °F 23.6 °F 28.4 °F 87% 29.73 in 5.0 mi WNW 10.4 mph - N/A   Overcast
4:35 AM 32.0 °F 23.0 °F 28.4 °F 87% 29.74 in 4.0 mi WNW 11.5 mph 17.3 mph N/A   Overcast
4:55 AM 30.2 °F 21.3 °F 28.4 °F 93% 29.75 in 2.0 mi WNW 10.4 mph 18.4 mph N/A   Overcast
5:15 AM 30.2 °F 21.9 °F 28.4 °F 93% 29.75 in 1.8 mi WNW 9.2 mph 17.3 mph N/A Snow Light Snow
5:35 AM 30.2 °F 23.4 °F 28.4 °F 93% 29.76 in 2.0 mi WNW 6.9 mph 18.4 mph N/A Snow Light Snow
5:55 AM 30.2 °F 21.3 °F 28.4 °F 93% 29.77 in 2.0 mi WNW 10.4 mph - N/A Snow Light Snow
6:15 AM 30.2 °F 21.9 °F 28.4 °F 93% 29.77 in 2.5 mi NW 9.2 mph 17.3 mph N/A Snow Light Snow
6:35 AM 30.2 °F 21.9 °F 28.4 °F 93% 29.78 in 10.0 mi WNW 9.2 mph 18.4 mph N/A Snow Light Snow
6:55 AM 30.2 °F 21.9 °F 28.4 °F 93% 29.79 in 10.0 mi NW 9.2 mph 17.3 mph N/A   Overcast
7:15 AM 30.2 °F 21.3 °F 28.4 °F 93% 29.79 in 5.0 mi WNW 10.4 mph 18.4 mph N/A Snow Light Snow
7:35 AM 30.2 °F 20.8 °F 28.4 °F 93% 29.80 in 3.0 mi WNW 11.5 mph 17.3 mph N/A Snow Light Snow
7:55 AM 30.2 °F 21.9 °F 28.4 °F 93% 29.81 in 3.0 mi WNW 9.2 mph 17.3 mph N/A Snow Light Snow
8:15 AM 30.2 °F 20.2 °F 28.4 °F 93% 29.82 in 1.8 mi WNW 12.7 mph 17.3 mph N/A Snow Light Snow
8:35 AM 30.2 °F 20.8 °F 28.4 °F 93% 29.84 in 1.5 mi WNW 11.5 mph 18.4 mph N/A Snow Light Snow
8:55 AM 30.2 °F 20.8 °F 28.4 °F 93% 29.85 in 1.5 mi WNW 11.5 mph 18.4 mph N/A Snow Light Snow
9:15 AM 30.2 °F 20.2 °F 28.4 °F 93% 29.86 in 1.8 mi WNW 12.7 mph 21.9 mph N/A Snow Light Snow
9:35 AM 30.2 °F 20.2 °F 28.4 °F 93% 29.87 in 1.5 mi WNW 12.7 mph 19.6 mph N/A Snow Light Snow
9:55 AM 30.2 °F 21.9 °F 28.4 °F 93% 29.87 in 1.8 mi NW 9.2 mph 16.1 mph N/A Snow Light Snow
10:15 AM 32.0 °F 23.6 °F 28.4 °F 87% 29.88 in 2.0 mi WNW 10.4 mph 16.1 mph N/A Snow Light Snow
10:35 AM 32.0 °F 23.6 °F 28.4 °F 87% 29.89 in 3.0 mi WNW 10.4 mph 17.3 mph N/A Snow Light Snow
10:55 AM 32.0 °F 25.6 °F 28.4 °F 87% 29.90 in 2.5 mi WNW 6.9 mph 16.1 mph N/A Snow Light Snow
11:15 AM 32.0 °F 24.2 °F 28.4 °F 87% 29.91 in 3.0 mi NW 9.2 mph 16.1 mph N/A Snow Light Snow
11:35 AM 32.0 °F 24.8 °F 28.4 °F 87% 29.91 in 10.0 mi WNW 8.1 mph 17.3 mph N/A   Overcast
11:55 AM 32.0 °F 24.8 °F 28.4 °F 87% 29.91 in 7.0 mi NW 8.1 mph - N/A Snow Light Snow
12:15 PM 33.8 °F 25.8 °F 28.4 °F 81% 29.92 in 10.0 mi NW 10.4 mph 19.6 mph N/A   Overcast
12:35 PM 32.0 °F 24.8 °F 28.4 °F 87% 29.93 in 10.0 mi WNW 8.1 mph 16.1 mph N/A   Overcast
12:55 PM 33.8 °F 23.9 °F 26.6 °F 75% 29.93 in 10.0 mi WNW 15.0 mph 23.0 mph N/A   Overcast
1:15 PM 33.8 °F 24.8 °F 26.6 °F 75% 29.94 in 10.0 mi NW 12.7 mph 25.3 mph N/A   Overcast
1:35 PM 33.8 °F 24.3 °F 28.4 °F 81% 29.93 in 10.0 mi WNW 13.8 mph 21.9 mph N/A   Overcast
1:55 PM 35.6 °F 27.1 °F 28.4 °F 75% 29.94 in 10.0 mi WNW 12.7 mph 21.9 mph N/A   Mostly Cloudy
2:15 PM 35.6 °F 27.5 °F 28.4 °F 75% 29.94 in 10.0 mi WNW 11.5 mph 19.6 mph N/A   Mostly Cloudy
2:35 PM 33.8 °F 25.8 °F 28.4 °F 81% 29.95 in 5.0 mi WNW 10.4 mph 18.4 mph N/A Snow Light Snow
2:55 PM 33.8 °F 27.0 °F 28.4 °F 81% 29.96 in 10.0 mi NW 8.1 mph 25.3 mph N/A   Overcast
3:15 PM 33.8 °F 27.7 °F 28.4 °F 81% 29.96 in 7.0 mi NW 6.9 mph 17.3 mph N/A   Overcast
3:35 PM 35.6 °F 27.1 °F 28.4 °F 75% 29.97 in 10.0 mi NW 12.7 mph 18.4 mph N/A   Overcast
3:55 PM 33.8 °F 25.8 °F 28.4 °F 81% 29.98 in 10.0 mi NW 10.4 mph 17.3 mph N/A   Overcast
4:15 PM 33.8 °F 25.3 °F 28.4 °F 81% 29.99 in 7.0 mi WNW 11.5 mph 17.3 mph N/A   Overcast
4:35 PM 33.8 °F 26.4 °F 30.2 °F 87% 30.00 in 4.0 mi NW 9.2 mph - N/A Snow Light Snow
4:55 PM 33.8 °F 27.0 °F 30.2 °F 87% 30.01 in 3.0 mi NW 8.1 mph - N/A Snow Light Snow
5:15 PM 33.8 °F 27.0 °F 30.2 °F 87% 30.02 in 2.0 mi WNW 8.1 mph 16.1 mph N/A Snow Light Snow
5:35 PM 33.8 °F 26.4 °F 30.2 °F 87% 30.02 in 2.5 mi WNW 9.2 mph - N/A Snow Light Snow
5:55 PM 33.8 °F 28.6 °F 30.2 °F 87% 30.04 in 4.0 mi WNW 5.8 mph - N/A Snow Light Snow
6:15 PM 33.8 °F 27.0 °F 30.2 °F 87% 30.05 in 2.5 mi NW 8.1 mph - N/A Snow Light Snow
6:35 PM 33.8 °F 26.4 °F 30.2 °F 87% 30.06 in 2.0 mi WNW 9.2 mph - N/A Snow Light Snow
6:55 PM 33.8 °F 29.6 °F 30.2 °F 87% 30.07 in 2.5 mi WNW 4.6 mph - N/A Snow Light Snow
7:15 PM 33.8 °F 29.6 °F 30.2 °F 87% 30.08 in 1.8 mi WNW 4.6 mph - N/A Snow Light Snow
7:35 PM 33.8 °F 28.6 °F 30.2 °F 87% 30.08 in 2.5 mi WNW 5.8 mph - N/A Snow Light Snow
7:55 PM 33.8 °F 28.6 °F 30.2 °F 87% 30.09 in 7.0 mi WNW 5.8 mph - N/A   Overcast
8:15 PM 32.0 °F 26.4 °F 30.2 °F 93% 30.10 in 7.0 mi WNW 5.8 mph - N/A Snow Light Snow
8:35 PM 32.0 °F 26.4 °F 30.2 °F 93% 30.10 in 4.0 mi WNW 5.8 mph - N/A Snow Light Snow
8:55 PM 32.0 °F 26.4 °F 28.4 °F 87% 30.11 in 5.0 mi WNW 5.8 mph - N/A Snow Light Snow
9:15 PM 32.0 °F 25.6 °F 28.4 °F 87% 30.11 in 10.0 mi WNW 6.9 mph - N/A Snow Light Snow
9:35 PM 32.0 °F 25.6 °F 28.4 °F 87% 30.12 in 10.0 mi WNW 6.9 mph - N/A   Overcast
9:55 PM 32.0 °F 27.5 °F 28.4 °F 87% 30.12 in 10.0 mi WNW 4.6 mph - N/A Snow Light Snow
10:15 PM 32.0 °F 28.7 °F 28.4 °F 87% 30.13 in 10.0 mi NW 3.5 mph - N/A Snow Light Snow
10:35 PM 32.0 °F 26.4 °F 28.4 °F 87% 30.13 in 3.0 mi WNW 5.8 mph - N/A Snow Light Snow
10:55 PM 32.0 °F 24.8 °F 28.4 °F 87% 30.14 in 7.0 mi NW 8.1 mph - N/A Snow Light Snow
11:15 PM 32.0 °F 24.8 °F 28.4 °F 87% 30.14 in 7.0 mi WNW 8.1 mph - N/A Snow Light Snow
11:35 PM 32.0 °F 28.7 °F 28.4 °F 87% 30.14 in 10.0 mi WNW 3.5 mph - N/A Snow Light Snow
11:55 PM 32.0 °F 26.4 °F 28.4 °F 87% 30.14 in 7.0 mi WNW 5.8 mph - N/A Snow Light Snow